createdAt,value
2023-02-16T08:17:08.536Z,8.95
2023-02-16T08:19:37.078Z,9.55
2023-02-16T08:22:05.829Z,9.07
2023-02-16T08:24:34.735Z,9.10
2023-02-16T08:27:04.300Z,10.48
2023-02-16T08:29:32.732Z,10.63
2023-02-16T08:32:01.370Z,11.55
2023-02-16T08:34:32.909Z,11.10
2023-02-16T08:37:02.244Z,10.07
2023-02-16T08:39:32.826Z,10.35
2023-02-16T08:42:02.352Z,11.40
2023-02-16T08:44:30.596Z,10.80
2023-02-16T08:47:00.755Z,11.35
2023-02-16T08:49:30.263Z,12.23
2023-02-16T08:51:59.766Z,11.98
2023-02-16T08:54:30.330Z,10.85
2023-02-16T08:57:01.602Z,12.18
2023-02-16T08:59:30.467Z,14.15
2023-02-16T09:01:59.220Z,12.10
2023-02-16T09:04:29.119Z,12.00
2023-02-16T09:06:59.892Z,13.48
2023-02-16T09:09:28.524Z,13.82
2023-02-16T09:11:57.699Z,14.15
2023-02-16T09:14:26.472Z,12.23
2023-02-16T09:16:54.514Z,14.07
2023-02-16T09:19:22.791Z,15.27
2023-02-16T09:21:51.947Z,13.98
2023-02-16T09:24:21.957Z,15.25
2023-02-16T09:26:49.812Z,14.43
2023-02-16T09:29:18.120Z,18.00
2023-02-16T09:31:46.397Z,15.35
2023-02-16T09:34:19.832Z,14.95
2023-02-16T09:36:48.256Z,15.80
2023-02-16T09:39:17.495Z,15.43
2023-02-16T09:42:08.954Z,16.67
2023-02-16T09:44:46.729Z,16.08
2023-02-16T09:47:22.001Z,12.85
2023-02-16T09:49:50.382Z,16.83
2023-02-16T09:52:24.206Z,17.80
2023-02-16T09:54:55.828Z,18.25
2023-02-16T09:57:39.501Z,18.90
2023-02-16T10:00:16.266Z,14.75
2023-02-16T10:02:51.163Z,16.02
2023-02-16T10:05:24.781Z,24.30
2023-02-16T10:08:03.530Z,16.92
2023-02-16T10:10:41.785Z,14.55
2023-02-16T10:13:17.897Z,18.40
2023-02-16T10:15:48.322Z,18.85
2023-02-16T10:18:23.027Z,17.67
2023-02-16T10:20:54.188Z,14.38
2023-02-16T10:23:35.690Z,16.67
2023-02-16T10:26:13.551Z,19.83
2023-02-16T10:28:47.701Z,17.10
2023-02-16T10:31:23.738Z,15.75
2023-02-16T10:34:05.247Z,17.27
2023-02-16T10:36:45.648Z,17.48
2023-02-16T10:39:20.569Z,19.65
2023-02-16T10:41:55.479Z,19.52
2023-02-16T10:44:29.229Z,21.33
2023-02-16T10:47:03.952Z,19.35
2023-02-16T10:49:33.156Z,23.40
2023-02-16T10:52:03.203Z,18.55
2023-02-16T10:54:33.079Z,19.60
2023-02-16T10:57:04.108Z,15.52
2023-02-16T10:59:39.584Z,17.02
2023-02-16T11:02:19.517Z,18.65
2023-02-16T11:04:50.106Z,16.30
2023-02-16T11:07:20.060Z,14.00
2023-02-16T11:09:51.101Z,17.33
2023-02-16T11:12:27.060Z,16.40
2023-02-16T11:15:01.157Z,19.15
2023-02-16T11:17:29.248Z,16.02
2023-02-16T11:20:01.922Z,14.63
2023-02-16T11:22:36.977Z,15.68
2023-02-16T11:25:28.964Z,13.73
2023-02-16T11:27:59.618Z,14.90
2023-02-16T11:30:34.944Z,10.57
2023-02-16T11:33:04.935Z,13.70
2023-02-16T11:35:42.123Z,10.73
2023-02-16T11:38:27.845Z,12.68
2023-02-16T11:40:56.547Z,10.55
2023-02-16T11:43:28.560Z,11.52
2023-02-16T11:46:03.502Z,12.80
2023-02-16T11:48:33.822Z,11.00
2023-02-16T11:51:03.980Z,9.55
2023-02-16T11:53:34.463Z,11.68
2023-02-16T11:56:22.962Z,10.35
2023-02-16T11:59:07.087Z,10.82
2023-02-16T12:01:54.302Z,11.20
2023-02-16T12:04:39.427Z,10.27
2023-02-16T12:07:16.471Z,12.35
2023-02-16T12:09:52.726Z,13.35
2023-02-16T12:12:32.240Z,8.57
2023-02-16T12:15:06.871Z,7.70
2023-02-16T12:17:49.366Z,13.98
2023-02-16T12:23:00.938Z,9.18
2023-02-16T12:25:34.026Z,9.45
2023-02-16T12:28:09.564Z,7.80
2023-02-16T12:30:49.805Z,7.88
2023-02-16T12:33:36.398Z,7.70
2023-02-16T12:36:32.216Z,9.27
2023-02-16T12:39:08.638Z,7.53
2023-02-16T12:41:48.342Z,11.18
2023-02-16T12:44:24.781Z,7.55
2023-02-16T12:47:01.894Z,9.43
2023-02-16T12:49:36.669Z,8.15
2023-02-16T12:52:08.153Z,8.48
2023-02-16T12:54:41.431Z,7.28
2023-02-16T12:57:14.626Z,8.50
2023-02-16T12:59:49.064Z,7.63
2023-02-16T13:02:23.086Z,7.38
2023-02-16T13:04:59.838Z,7.82
2023-02-16T13:07:32.570Z,7.15
2023-02-16T13:10:05.235Z,8.15
2023-02-16T13:12:36.682Z,6.20
2023-02-16T13:15:12.498Z,6.20
2023-02-16T13:17:44.386Z,6.13
2023-02-16T13:20:16.988Z,6.32
2023-02-16T13:23:21.010Z,6.60
2023-02-16T13:26:18.363Z,7.93
2023-02-16T13:29:03.401Z,6.97
2023-02-16T13:31:43.986Z,5.60
2023-02-16T13:34:34.144Z,5.75
2023-02-16T13:37:30.460Z,8.50
2023-02-16T13:40:22.287Z,6.18
2023-02-16T13:43:15.633Z,5.93
2023-02-16T13:45:46.822Z,6.97
2023-02-16T13:48:17.230Z,6.38
2023-02-16T13:50:46.699Z,6.40
2023-02-16T13:53:22.570Z,7.32
2023-02-16T13:55:52.736Z,8.70
2023-02-16T13:58:33.394Z,8.40
2023-02-16T14:01:38.935Z,6.78
2023-02-16T14:04:11.655Z,7.07
2023-02-16T14:06:42.735Z,8.93
2023-02-16T14:09:46.622Z,7.55
2023-02-16T14:12:21.770Z,10.63
2023-02-16T14:15:01.975Z,6.25
2023-02-16T14:17:33.543Z,7.30
2023-02-16T14:22:40.700Z,7.75
2023-02-16T14:25:36.171Z,6.65
2023-02-16T14:28:05.929Z,8.57
2023-02-16T14:30:37.225Z,7.65
2023-02-16T14:33:17.404Z,9.32
2023-02-16T14:35:47.724Z,8.18
2023-02-16T14:38:19.454Z,6.55
2023-02-16T14:40:55.266Z,8.40
2023-02-16T14:43:31.096Z,5.95
2023-02-16T14:46:26.001Z,6.07
2023-02-16T14:49:25.028Z,5.88
2023-02-16T14:52:20.799Z,7.30
2023-02-16T14:55:15.460Z,7.05
2023-02-16T14:57:51.836Z,7.75
2023-02-16T15:00:26.351Z,7.45
2023-02-16T15:02:58.859Z,8.48
2023-02-16T15:05:29.624Z,9.38
2023-02-16T15:08:05.049Z,7.63
2023-02-16T15:10:33.098Z,8.48
2023-02-16T15:13:02.869Z,10.55
2023-02-16T15:15:42.485Z,8.38
2023-02-16T15:18:16.091Z,9.05
2023-02-16T15:20:46.887Z,7.35
2023-02-16T15:23:21.403Z,11.43
2023-02-16T15:25:58.651Z,9.38
2023-02-16T15:28:30.832Z,9.20
2023-02-16T15:31:00.748Z,7.60
2023-02-16T15:33:36.241Z,7.60
2023-02-16T15:36:08.801Z,9.65
2023-02-16T15:38:38.184Z,8.63
2023-02-16T15:41:08.940Z,14.40
2023-02-16T15:43:40.608Z,8.32
2023-02-16T15:46:15.984Z,10.77
2023-02-16T15:48:44.300Z,11.23
2023-02-16T15:51:17.291Z,10.15
2023-02-16T15:53:49.291Z,9.00
2023-02-16T15:56:34.759Z,11.25
2023-02-16T15:59:14.475Z,6.50
2023-02-16T16:01:42.347Z,7.78
2023-02-16T16:04:20.224Z,7.03
2023-02-16T16:06:51.051Z,8.07
2023-02-16T16:09:24.142Z,8.30
2023-02-16T16:11:53.006Z,9.48
2023-02-16T16:14:22.999Z,10.20
